createdAt,value
2023-05-07T00:01:07.837Z,3.15
2023-05-07T00:03:40.809Z,3.05
2023-05-07T00:06:13.865Z,3.35
2023-05-07T00:08:47.006Z,3.22
2023-05-07T00:11:21.461Z,3.22
2023-05-07T00:13:54.253Z,3.00
2023-05-07T00:16:27.230Z,2.83
2023-05-07T00:19:00.182Z,3.42
2023-05-07T00:21:36.720Z,3.00
2023-05-07T00:24:09.795Z,2.95
2023-05-07T00:26:44.158Z,3.15
2023-05-07T00:29:16.974Z,2.88
2023-05-07T00:31:51.496Z,2.75
2023-05-07T00:34:24.570Z,2.70
2023-05-07T00:36:57.704Z,2.95
2023-05-07T00:39:30.554Z,2.42
2023-05-07T00:42:05.134Z,2.40
2023-05-07T00:44:37.912Z,2.83
2023-05-07T00:47:11.043Z,2.42
2023-05-07T00:49:45.364Z,2.60
2023-05-07T00:52:19.824Z,3.03
2023-05-07T00:54:53.177Z,2.65
2023-05-07T00:57:27.597Z,2.92
2023-05-07T01:00:00.539Z,2.45
2023-05-07T01:02:33.385Z,2.85
2023-05-07T01:05:10.472Z,2.80
2023-05-07T01:07:44.748Z,2.30
2023-05-07T01:10:19.096Z,2.80
2023-05-07T01:12:54.316Z,2.70
2023-05-07T01:15:27.726Z,2.75
2023-05-07T01:18:01.254Z,3.05
2023-05-07T01:20:39.173Z,2.90
2023-05-07T01:23:14.034Z,2.90
2023-05-07T01:25:53.682Z,2.90
2023-05-07T01:28:28.075Z,3.10
2023-05-07T01:31:07.361Z,3.08
2023-05-07T01:33:43.733Z,2.92
2023-05-07T01:36:18.459Z,2.88
2023-05-07T01:38:52.818Z,2.90
2023-05-07T01:41:25.852Z,2.60
2023-05-07T01:44:01.149Z,3.17
2023-05-07T01:46:35.153Z,3.03
2023-05-07T01:49:08.141Z,3.10
2023-05-07T01:51:42.071Z,2.97
2023-05-07T01:54:16.415Z,2.88
2023-05-07T01:56:50.003Z,3.28
2023-05-07T01:59:23.267Z,2.78
2023-05-07T02:01:56.222Z,2.30
2023-05-07T02:04:29.342Z,2.80
2023-05-07T02:07:02.545Z,2.90
2023-05-07T02:09:37.739Z,3.40
2023-05-07T02:12:11.118Z,4.50
2023-05-07T02:14:44.441Z,3.08
2023-05-07T02:17:18.060Z,2.92
2023-05-07T02:19:51.086Z,2.85
2023-05-07T02:22:23.958Z,3.10
2023-05-07T02:24:58.193Z,2.92
2023-05-07T02:27:31.297Z,3.42
2023-05-07T02:30:04.370Z,3.30
2023-05-07T02:32:37.490Z,3.08
2023-05-07T02:35:10.581Z,3.45
2023-05-07T02:37:43.603Z,2.97
2023-05-07T02:40:18.057Z,2.55
2023-05-07T02:42:51.057Z,3.22
2023-05-07T02:45:24.087Z,2.78
2023-05-07T02:47:59.408Z,2.60
2023-05-07T02:50:33.423Z,3.17
2023-05-07T02:53:06.201Z,3.17
2023-05-07T02:55:40.535Z,3.03
2023-05-07T02:58:13.728Z,3.42
2023-05-07T03:00:48.082Z,3.10
2023-05-07T03:03:34.811Z,3.10
2023-05-07T03:06:08.843Z,3.13
2023-05-07T03:08:41.743Z,3.60
2023-05-07T03:11:16.256Z,3.63
2023-05-07T03:13:50.588Z,2.92
2023-05-07T03:16:25.744Z,2.53
2023-05-07T03:18:58.742Z,2.72
2023-05-07T03:21:34.683Z,3.30
2023-05-07T03:24:08.008Z,3.03
2023-05-07T03:26:42.357Z,2.88
2023-05-07T03:29:21.747Z,3.50
2023-05-07T03:31:54.963Z,3.80
2023-05-07T03:34:27.884Z,3.42
2023-05-07T03:37:00.831Z,3.50
2023-05-07T03:39:34.173Z,3.53
2023-05-07T03:42:09.095Z,3.25
2023-05-07T03:44:42.298Z,3.53
2023-05-07T03:47:15.994Z,3.65
2023-05-07T03:49:50.242Z,3.45
2023-05-07T03:52:27.155Z,3.58
2023-05-07T03:55:03.357Z,3.25
2023-05-07T03:57:40.809Z,3.50
2023-05-07T04:00:16.066Z,3.13
2023-05-07T04:05:33.699Z,4.15
2023-05-07T04:08:09.497Z,3.92
2023-05-07T04:10:46.384Z,3.83
2023-05-07T04:13:21.697Z,3.83
2023-05-07T04:15:55.185Z,4.22
2023-05-07T04:18:28.343Z,4.25
2023-05-07T04:21:01.391Z,4.07
2023-05-07T04:23:34.543Z,4.20
2023-05-07T04:26:09.906Z,4.13
2023-05-07T04:28:47.682Z,4.15
2023-05-07T04:31:22.982Z,3.80
2023-05-07T04:33:58.925Z,3.53
2023-05-07T04:36:34.229Z,3.30
2023-05-07T04:39:11.989Z,4.15
2023-05-07T04:41:47.154Z,3.90
2023-05-07T04:44:21.811Z,3.33
2023-05-07T04:46:55.600Z,3.65
2023-05-07T04:49:28.784Z,3.72
2023-05-07T04:52:02.920Z,3.55
2023-05-07T04:54:36.272Z,4.32
2023-05-07T04:57:09.233Z,3.50
2023-05-07T04:59:43.724Z,4.13
2023-05-07T05:02:18.824Z,3.80
2023-05-07T05:04:53.581Z,3.60
2023-05-07T05:07:26.679Z,3.40
2023-05-07T05:10:00.171Z,3.70
2023-05-07T05:12:33.089Z,3.38
2023-05-07T05:15:11.512Z,3.40
2023-05-07T05:17:45.051Z,3.95
2023-05-07T05:20:19.119Z,4.10
2023-05-07T05:22:52.422Z,3.30
2023-05-07T05:25:25.740Z,3.67
2023-05-07T05:27:58.952Z,4.40
2023-05-07T05:30:33.534Z,3.85
2023-05-07T05:33:06.803Z,4.22
2023-05-07T05:35:39.939Z,4.20
2023-05-07T05:38:17.491Z,3.80
2023-05-07T05:40:50.825Z,4.15
2023-05-07T05:43:24.426Z,4.22
2023-05-07T05:45:59.995Z,4.00
2023-05-07T05:48:33.326Z,4.38
2023-05-07T05:51:08.040Z,4.40
2023-05-07T05:53:40.934Z,4.45
2023-05-07T05:56:14.612Z,4.15
2023-05-07T05:58:48.705Z,4.75
2023-05-07T06:01:23.020Z,4.38
2023-05-07T06:03:58.445Z,4.80
2023-05-07T06:06:32.388Z,4.80
2023-05-07T06:09:05.991Z,4.80
2023-05-07T06:11:45.097Z,4.75
2023-05-07T06:14:19.985Z,5.07
2023-05-07T06:16:54.734Z,4.97
2023-05-07T06:19:29.282Z,5.53
2023-05-07T06:22:04.209Z,5.00
2023-05-07T06:24:39.036Z,5.70
2023-05-07T06:27:13.537Z,6.07
2023-05-07T06:29:47.269Z,5.47
2023-05-07T06:32:23.581Z,5.80
2023-05-07T06:34:58.103Z,5.65
2023-05-07T06:37:31.289Z,6.43
2023-05-07T06:40:09.878Z,5.78
2023-05-07T06:42:45.353Z,5.20
2023-05-07T06:45:36.822Z,6.30
2023-05-07T06:48:12.577Z,6.40
2023-05-07T06:50:58.584Z,5.72
2023-05-07T06:53:32.361Z,6.28
2023-05-07T06:56:07.804Z,5.70
2023-05-07T06:58:40.740Z,5.85
2023-05-07T07:01:14.954Z,6.28
2023-05-07T07:03:52.270Z,6.50
2023-05-07T07:06:27.073Z,6.38
2023-05-07T07:09:00.893Z,6.35
2023-05-07T07:11:33.931Z,6.68
2023-05-07T07:14:07.729Z,6.30
2023-05-07T07:16:47.782Z,6.72
2023-05-07T07:19:23.088Z,5.80
2023-05-07T07:22:01.133Z,6.57
2023-05-07T07:24:34.929Z,6.28
2023-05-07T07:27:11.906Z,6.35
2023-05-07T07:29:45.797Z,6.32
2023-05-07T07:32:19.096Z,6.38
2023-05-07T07:34:54.482Z,5.25
2023-05-07T07:37:27.781Z,6.68
2023-05-07T07:40:02.236Z,6.32
2023-05-07T07:42:35.275Z,6.03
2023-05-07T07:45:10.072Z,6.78
2023-05-07T07:47:47.226Z,6.30
2023-05-07T07:50:39.894Z,6.50
2023-05-07T07:53:15.386Z,6.07
2023-05-07T07:55:49.201Z,6.43
2023-05-07T07:58:25.871Z,6.10
2023-05-07T08:00:59.589Z,6.22
2023-05-07T08:03:34.100Z,6.10
2023-05-07T08:06:10.158Z,6.30
2023-05-07T08:08:43.562Z,6.30
2023-05-07T08:11:23.522Z,6.53
2023-05-07T08:14:05.269Z,6.20
2023-05-07T08:16:39.150Z,5.97
2023-05-07T08:19:18.007Z,5.45
2023-05-07T08:21:53.404Z,6.60
2023-05-07T08:24:27.214Z,6.25
2023-05-07T08:27:00.274Z,5.85
2023-05-07T08:29:33.164Z,6.50
2023-05-07T08:32:07.212Z,6.53
2023-05-07T08:34:40.122Z,5.97
2023-05-07T08:37:15.036Z,6.45
2023-05-07T08:39:48.205Z,6.07
2023-05-07T08:42:27.056Z,6.07
2023-05-07T08:45:03.194Z,5.80
2023-05-07T08:47:42.840Z,6.13
2023-05-07T08:50:16.733Z,5.55
2023-05-07T08:52:51.433Z,5.72
2023-05-07T08:55:26.465Z,5.47
2023-05-07T08:57:59.515Z,5.97
2023-05-07T09:00:32.355Z,5.65
2023-05-07T09:03:06.836Z,5.07
2023-05-07T09:05:40.280Z,5.40
2023-05-07T09:08:17.819Z,4.97
2023-05-07T09:10:54.491Z,5.78
2023-05-07T09:13:29.927Z,4.93
2023-05-07T09:16:13.061Z,5.95
2023-05-07T09:18:48.717Z,4.60
2023-05-07T09:21:23.855Z,5.32
2023-05-07T09:24:00.093Z,4.68
2023-05-07T09:26:41.592Z,5.13
2023-05-07T09:29:15.200Z,4.53
2023-05-07T09:31:48.318Z,5.22
2023-05-07T09:34:23.843Z,5.13
2023-05-07T09:36:57.757Z,4.80
2023-05-07T09:39:42.788Z,4.93
2023-05-07T09:42:16.866Z,4.53
2023-05-07T09:44:50.318Z,4.90
2023-05-07T09:47:27.239Z,3.78
2023-05-07T09:50:03.448Z,4.15
2023-05-07T09:52:37.126Z,4.38
2023-05-07T09:55:14.545Z,4.72
2023-05-07T09:57:49.327Z,3.90
2023-05-07T10:00:22.886Z,4.30
2023-05-07T10:02:59.804Z,4.88
2023-05-07T10:05:45.547Z,3.80
2023-05-07T10:08:20.929Z,3.90
2023-05-07T10:10:57.912Z,3.85
2023-05-07T10:13:33.850Z,4.05
2023-05-07T10:16:07.362Z,3.97
2023-05-07T10:18:47.837Z,3.72
2023-05-07T10:21:25.883Z,4.15
2023-05-07T10:24:09.755Z,3.78
2023-05-07T10:26:46.006Z,3.93
2023-05-07T10:29:30.954Z,3.30
2023-05-07T10:32:22.178Z,3.90
2023-05-07T10:34:59.588Z,3.80
2023-05-07T10:37:33.170Z,3.38
2023-05-07T10:40:08.175Z,3.20
2023-05-07T10:42:55.971Z,3.13
2023-05-07T10:45:30.143Z,3.22
2023-05-07T10:50:51.076Z,3.25
2023-05-07T10:53:30.064Z,3.45
2023-05-07T10:56:30.985Z,3.35
2023-05-07T10:59:42.724Z,3.35
2023-05-07T11:02:23.576Z,3.78
2023-05-07T11:08:03.873Z,3.05
2023-05-07T11:10:51.721Z,3.35
2023-05-07T11:13:50.641Z,3.33
2023-05-07T11:16:51.363Z,2.83
2023-05-07T11:19:52.279Z,2.92
2023-05-07T11:22:40.715Z,3.00
2023-05-07T11:25:22.611Z,3.17
2023-05-07T11:28:16.213Z,3.38
2023-05-07T11:31:00.112Z,2.90
2023-05-07T11:33:34.815Z,2.85
2023-05-07T11:36:10.675Z,3.00
2023-05-07T11:38:49.342Z,2.72
2023-05-07T11:41:22.917Z,2.60
2023-05-07T11:43:57.503Z,2.53
2023-05-07T11:46:31.224Z,3.25
2023-05-07T11:49:05.689Z,2.92
2023-05-07T11:51:39.022Z,2.70
2023-05-07T11:54:12.434Z,2.65
2023-05-07T11:56:47.263Z,2.63
2023-05-07T11:59:20.506Z,2.30
2023-05-07T12:01:53.358Z,2.67
2023-05-07T12:04:27.953Z,2.63
2023-05-07T12:07:00.720Z,2.20
2023-05-07T12:09:34.966Z,3.05
2023-05-07T12:12:08.500Z,2.60
2023-05-07T12:14:41.628Z,2.28
2023-05-07T12:17:16.488Z,2.40
2023-05-07T12:19:51.794Z,2.28
2023-05-07T12:22:24.753Z,2.35
2023-05-07T12:25:00.742Z,2.40
2023-05-07T12:27:33.647Z,2.15
2023-05-07T12:30:07.358Z,2.08
2023-05-07T12:32:40.192Z,2.22
2023-05-07T12:35:14.570Z,2.35
2023-05-07T12:37:57.311Z,2.03
2023-05-07T12:40:38.582Z,2.28
2023-05-07T12:43:17.547Z,1.90
2023-05-07T12:45:52.326Z,2.00
2023-05-07T12:48:28.027Z,1.88
2023-05-07T12:51:04.013Z,1.63
2023-05-07T12:53:43.231Z,1.92
2023-05-07T12:56:17.998Z,2.00
2023-05-07T12:58:51.213Z,1.65
2023-05-07T13:01:25.234Z,1.75
2023-05-07T13:03:58.110Z,1.40
2023-05-07T13:06:33.325Z,1.30
2023-05-07T13:09:07.042Z,1.50
2023-05-07T13:11:39.753Z,1.88
2023-05-07T13:14:12.518Z,1.67
2023-05-07T13:16:45.322Z,1.70
2023-05-07T13:19:18.491Z,2.00
2023-05-07T13:21:52.558Z,1.90
2023-05-07T13:24:25.273Z,2.10
2023-05-07T13:26:58.103Z,1.85
2023-05-07T13:29:31.349Z,1.48
2023-05-07T13:32:04.276Z,1.50
2023-05-07T13:34:37.955Z,1.38
2023-05-07T13:37:12.908Z,1.60
2023-05-07T13:39:45.840Z,1.60
2023-05-07T13:42:19.126Z,1.55
2023-05-07T13:44:51.942Z,1.70
2023-05-07T13:47:24.940Z,1.80
2023-05-07T13:49:57.805Z,1.90
2023-05-07T13:52:31.863Z,1.65
2023-05-07T13:55:05.300Z,1.40
2023-05-07T13:57:38.361Z,1.63
2023-05-07T14:00:12.738Z,1.40
2023-05-07T14:02:48.756Z,1.50
2023-05-07T14:05:21.699Z,1.52
2023-05-07T14:07:56.496Z,1.20
2023-05-07T14:10:29.436Z,1.48
2023-05-07T14:13:02.238Z,1.60
2023-05-07T14:15:35.075Z,1.60
2023-05-07T14:18:08.170Z,1.30
2023-05-07T14:20:41.404Z,1.60
2023-05-07T14:23:15.564Z,1.50
2023-05-07T14:25:48.663Z,1.20
2023-05-07T14:28:21.728Z,1.27
2023-05-07T14:30:54.553Z,1.73
2023-05-07T14:33:27.330Z,1.42
2023-05-07T14:36:00.384Z,1.58
2023-05-07T14:38:34.624Z,1.40
2023-05-07T14:41:07.440Z,1.50
2023-05-07T14:43:40.308Z,1.63
2023-05-07T14:46:13.189Z,1.60
2023-05-07T14:48:46.997Z,1.30
2023-05-07T14:51:19.797Z,1.40
2023-05-07T14:53:54.115Z,1.50
2023-05-07T14:56:26.934Z,1.42
2023-05-07T14:59:00.605Z,1.92
2023-05-07T15:01:33.470Z,1.48
2023-05-07T15:04:06.702Z,1.60
2023-05-07T15:06:39.577Z,1.38
2023-05-07T15:09:14.499Z,1.50
2023-05-07T15:11:47.479Z,1.40
2023-05-07T15:14:22.713Z,1.40
2023-05-07T15:16:55.646Z,1.33
2023-05-07T15:19:30.305Z,1.60
2023-05-07T15:22:04.066Z,1.38
2023-05-07T15:24:38.276Z,1.25
2023-05-07T15:27:11.152Z,1.52
2023-05-07T15:29:44.093Z,1.50
2023-05-07T15:32:16.963Z,1.73
2023-05-07T15:34:49.929Z,1.58
2023-05-07T15:37:22.748Z,1.60
2023-05-07T15:39:57.098Z,1.70
2023-05-07T15:42:29.910Z,1.60
2023-05-07T15:45:02.977Z,1.70
2023-05-07T15:47:36.633Z,1.73
2023-05-07T15:50:10.138Z,1.90
2023-05-07T15:52:43.058Z,1.75
2023-05-07T15:55:17.206Z,1.85
2023-05-07T15:57:50.649Z,1.80
2023-05-07T16:00:23.967Z,1.90
2023-05-07T16:02:57.594Z,1.80
2023-05-07T16:05:30.688Z,1.83
2023-05-07T16:08:04.156Z,2.03
2023-05-07T16:10:38.309Z,1.88
2023-05-07T16:13:12.510Z,2.20
2023-05-07T16:15:45.372Z,1.77
2023-05-07T16:18:18.198Z,2.05
2023-05-07T16:20:51.184Z,2.08
2023-05-07T16:23:23.970Z,1.98
2023-05-07T16:25:58.259Z,1.77
2023-05-07T16:28:31.177Z,1.90
2023-05-07T16:31:04.685Z,2.15
2023-05-07T16:33:37.726Z,1.95
2023-05-07T16:36:10.630Z,1.80
2023-05-07T16:38:43.541Z,1.70
2023-05-07T16:41:17.929Z,1.88
2023-05-07T16:43:51.456Z,1.70
2023-05-07T16:46:24.427Z,1.75
2023-05-07T16:48:57.580Z,2.00
2023-05-07T16:51:30.454Z,1.95
2023-05-07T16:54:03.561Z,2.00
2023-05-07T16:56:37.968Z,1.75
2023-05-07T16:59:10.910Z,2.30
2023-05-07T17:01:43.835Z,1.63
2023-05-07T17:04:16.601Z,1.92
2023-05-07T17:06:49.424Z,2.00
2023-05-07T17:09:22.271Z,2.08
2023-05-07T17:11:56.842Z,2.00
2023-05-07T17:14:29.805Z,1.85
2023-05-07T17:17:03.431Z,1.88
2023-05-07T17:19:40.059Z,2.22
2023-05-07T17:22:13.000Z,2.10
2023-05-07T17:24:46.173Z,2.13
2023-05-07T17:27:21.083Z,2.50
2023-05-07T17:29:53.971Z,2.40
2023-05-07T17:32:27.552Z,2.53
2023-05-07T17:35:00.320Z,2.50
2023-05-07T17:37:34.178Z,2.72
2023-05-07T17:40:08.632Z,2.90
2023-05-07T17:42:42.958Z,2.55
2023-05-07T17:45:16.254Z,2.92
2023-05-07T17:47:49.052Z,3.08
2023-05-07T17:50:22.091Z,3.03
2023-05-07T17:52:55.595Z,2.65
2023-05-07T17:55:28.472Z,3.30
2023-05-07T17:58:03.265Z,2.80
2023-05-07T18:00:36.142Z,3.15
2023-05-07T18:03:09.132Z,3.22
2023-05-07T18:05:42.027Z,3.10
2023-05-07T18:08:14.998Z,2.90
2023-05-07T18:10:47.876Z,2.80
2023-05-07T18:13:22.194Z,2.85
2023-05-07T18:15:55.143Z,3.17
2023-05-07T18:18:30.702Z,3.15
2023-05-07T18:21:03.832Z,2.75
2023-05-07T18:23:36.808Z,2.55
2023-05-07T18:26:09.703Z,3.15
2023-05-07T18:28:44.054Z,3.38
2023-05-07T18:31:17.243Z,3.25
2023-05-07T18:33:52.603Z,3.13
2023-05-07T18:36:28.179Z,3.10
2023-05-07T18:39:01.392Z,2.60
2023-05-07T18:41:34.321Z,2.60
2023-05-07T18:44:08.533Z,2.20
2023-05-07T18:46:41.723Z,2.40
2023-05-07T18:49:14.671Z,2.13
2023-05-07T18:51:47.481Z,2.38
2023-05-07T18:54:20.324Z,2.35
2023-05-07T18:56:53.112Z,2.50
2023-05-07T18:59:27.523Z,1.98
2023-05-07T19:02:00.328Z,2.05
2023-05-07T19:04:33.233Z,2.30
2023-05-07T19:07:06.401Z,1.70
2023-05-07T19:09:42.356Z,2.15
2023-05-07T19:12:18.719Z,1.88
2023-05-07T19:14:54.230Z,1.63
2023-05-07T19:17:27.072Z,2.42
2023-05-07T19:20:00.230Z,1.90
2023-05-07T19:22:33.356Z,1.80
2023-05-07T19:25:07.344Z,2.00
2023-05-07T19:27:40.268Z,2.20
2023-05-07T19:30:14.877Z,1.70
2023-05-07T19:32:47.956Z,2.22
2023-05-07T19:35:20.834Z,1.95
2023-05-07T19:37:53.856Z,1.73
2023-05-07T19:40:26.752Z,1.73
2023-05-07T19:42:59.598Z,1.85
2023-05-07T19:45:33.862Z,2.28
2023-05-07T19:48:07.172Z,2.08
2023-05-07T19:50:39.984Z,1.92
2023-05-07T19:53:12.785Z,2.15
2023-05-07T19:55:45.732Z,2.30
2023-05-07T19:58:18.759Z,2.20
2023-05-07T20:00:52.952Z,2.38
2023-05-07T20:03:25.826Z,2.10
2023-05-07T20:05:59.048Z,2.03
2023-05-07T20:08:31.914Z,2.70
2023-05-07T20:11:04.791Z,2.08
2023-05-07T20:13:37.523Z,2.58
2023-05-07T20:16:12.187Z,2.22
2023-05-07T20:18:45.092Z,2.10
2023-05-07T20:21:17.840Z,2.40
2023-05-07T20:23:51.521Z,2.45
2023-05-07T20:26:24.388Z,2.28
2023-05-07T20:28:57.231Z,1.98
2023-05-07T20:31:32.317Z,2.10
2023-05-07T20:34:05.202Z,2.05
2023-05-07T20:36:38.069Z,2.30
2023-05-07T20:39:13.114Z,2.13
2023-05-07T20:41:46.007Z,2.00
2023-05-07T20:44:19.014Z,2.30
2023-05-07T20:46:53.426Z,2.42
2023-05-07T20:49:26.446Z,1.85
2023-05-07T20:51:59.210Z,2.13
2023-05-07T20:54:32.218Z,2.38
2023-05-07T20:57:05.193Z,2.30
2023-05-07T20:59:40.197Z,2.38
2023-05-07T21:02:14.856Z,2.67
2023-05-07T21:04:47.835Z,1.92
2023-05-07T21:07:20.870Z,2.13
2023-05-07T21:09:53.662Z,2.00
2023-05-07T21:12:26.611Z,2.13
2023-05-07T21:14:59.412Z,2.35
2023-05-07T21:17:35.132Z,2.20
2023-05-07T21:20:09.576Z,2.53
2023-05-07T21:22:42.375Z,2.47
2023-05-07T21:25:15.148Z,2.15
2023-05-07T21:27:48.068Z,2.40
2023-05-07T21:30:21.118Z,2.38
2023-05-07T21:32:55.674Z,2.35
2023-05-07T21:35:28.920Z,2.40
2023-05-07T21:38:02.632Z,2.08
2023-05-07T21:40:35.836Z,2.20
2023-05-07T21:43:08.664Z,2.03
2023-05-07T21:45:41.892Z,2.03
2023-05-07T21:48:18.674Z,2.28
2023-05-07T21:51:00.784Z,2.10
2023-05-07T21:53:34.588Z,2.80
2023-05-07T21:56:08.097Z,2.35
2023-05-07T21:58:41.123Z,2.20
2023-05-07T22:01:14.537Z,2.38
2023-05-07T22:03:49.002Z,1.95
2023-05-07T22:06:22.976Z,2.42
2023-05-07T22:08:56.304Z,2.42
2023-05-07T22:11:29.295Z,2.42
2023-05-07T22:14:02.293Z,2.15
2023-05-07T22:16:35.508Z,2.50
2023-05-07T22:19:09.988Z,2.00
2023-05-07T22:21:42.928Z,2.25
2023-05-07T22:24:15.985Z,2.20
2023-05-07T22:26:49.688Z,2.20
2023-05-07T22:29:23.440Z,2.45
2023-05-07T22:31:56.653Z,2.10
2023-05-07T22:34:31.134Z,2.00
2023-05-07T22:37:04.160Z,1.95
2023-05-07T22:39:37.475Z,2.00
2023-05-07T22:42:10.637Z,2.30
2023-05-07T22:44:43.570Z,2.88
2023-05-07T22:47:16.508Z,2.58
2023-05-07T22:49:51.173Z,2.38
2023-05-07T22:52:24.539Z,2.63
2023-05-07T22:54:57.345Z,2.47
2023-05-07T22:57:30.267Z,2.42
2023-05-07T23:00:03.620Z,1.90
2023-05-07T23:02:37.013Z,2.72
2023-05-07T23:05:11.436Z,2.40
2023-05-07T23:07:44.322Z,2.55
2023-05-07T23:10:17.302Z,2.70
2023-05-07T23:12:50.202Z,3.13
2023-05-07T23:15:23.352Z,2.28
2023-05-07T23:17:56.767Z,2.63
2023-05-07T23:20:31.239Z,2.72
2023-05-07T23:23:04.557Z,3.00
2023-05-07T23:25:37.369Z,3.00
2023-05-07T23:28:10.737Z,2.67
2023-05-07T23:30:43.726Z,4.22
2023-05-07T23:33:16.807Z,3.70
2023-05-07T23:35:51.108Z,2.78
2023-05-07T23:38:24.177Z,3.00
2023-05-07T23:40:57.069Z,4.60
2023-05-07T23:43:30.079Z,3.63
2023-05-07T23:46:03.344Z,3.10
2023-05-07T23:48:36.336Z,3.10
2023-05-07T23:51:10.521Z,3.50
2023-05-07T23:53:43.371Z,3.50
2023-05-07T23:56:16.248Z,3.47
2023-05-07T23:58:49.006Z,5.05
